SKW5779 KDEN-KASE
Flight info
| Callsign | SKW5779 |
|---|---|
| Flight time | 0h 23m |
| Altitude | 24000 |
| Route | CONNR8 CONNR MMARY MMARY1 |
| Aircraft | E75L/M-SDE3GILORVW/S |
Departure
| Time | 2026-04-22 03:31 |
|---|---|
| Airport | Denver International Airport (KDEN) |
Arrival
| Time | 2026-04-22 03:54 |
|---|---|
| Airport | Aspen-Pitkin County Airport (Sardy Field) (KASE) |
| Time | Latitude | Longitude | Altitude | Speed | Heading |
|---|---|---|---|---|---|
| 2026-04-22 02:55 | 39.85941 | -104.66610 | 5378 ft | 0 kts | 181° |
| 2026-04-22 03:15 | 39.85950 | -104.66610 | 5373 ft | 4 kts | 181° |
| 2026-04-22 03:16 | 39.85976 | -104.66609 | 5376 ft | 3 kts | 182° |
| 2026-04-22 03:16 | 39.85998 | -104.66608 | 5375 ft | 4 kts | 182° |
| 2026-04-22 03:16 | 39.86018 | -104.66607 | 5374 ft | 0 kts | 182° |
| 2026-04-22 03:21 | 39.86014 | -104.66604 | 5374 ft | 1 kts | 145° |
| 2026-04-22 03:21 | 39.86013 | -104.66581 | 5376 ft | 5 kts | 82° |
| 2026-04-22 03:21 | 39.86017 | -104.66521 | 5378 ft | 8 kts | 90° |
| 2026-04-22 03:22 | 39.86017 | -104.66460 | 5379 ft | 4 kts | 90° |
| 2026-04-22 03:22 | 39.86017 | -104.66453 | 5380 ft | 0 kts | 90° |
| 2026-04-22 03:24 | 39.86017 | -104.66440 | 5376 ft | 4 kts | 90° |
| 2026-04-22 03:25 | 39.86016 | -104.66367 | 5382 ft | 12 kts | 91° |
| 2026-04-22 03:25 | 39.86032 | -104.66246 | 5384 ft | 16 kts | 45° |
| 2026-04-22 03:25 | 39.86148 | -104.66230 | 5379 ft | 20 kts | 1° |
| 2026-04-22 03:25 | 39.86292 | -104.66227 | 5380 ft | 21 kts | 1° |
| 2026-04-22 03:26 | 39.86441 | -104.66226 | 5378 ft | 20 kts | 2° |
| 2026-04-22 03:26 | 39.86499 | -104.66125 | 5379 ft | 12 kts | 89° |
| 2026-04-22 03:26 | 39.86498 | -104.65997 | 5375 ft | 16 kts | 91° |
| 2026-04-22 03:26 | 39.86498 | -104.65842 | 5372 ft | 18 kts | 90° |
| 2026-04-22 03:27 | 39.86496 | -104.65667 | 5370 ft | 21 kts | 90° |
| 2026-04-22 03:27 | 39.86495 | -104.65471 | 5366 ft | 23 kts | 90° |
| 2026-04-22 03:27 | 39.86492 | -104.65256 | 5361 ft | 25 kts | 90° |
| 2026-04-22 03:27 | 39.86491 | -104.65025 | 5357 ft | 26 kts | 91° |
| 2026-04-22 03:28 | 39.86491 | -104.64873 | 5354 ft | 23 kts | 91° |
| 2026-04-22 03:28 | 39.86489 | -104.64653 | 5349 ft | 25 kts | 91° |
| 2026-04-22 03:28 | 39.86487 | -104.64416 | 5344 ft | 27 kts | 90° |
| 2026-04-22 03:28 | 39.86486 | -104.64188 | 5342 ft | 14 kts | 91° |
| 2026-04-22 03:29 | 39.86451 | -104.64133 | 5345 ft | 11 kts | 170° |
| 2026-04-22 03:29 | 39.86429 | -104.64132 | 5345 ft | 0 kts | 180° |
| 2026-04-22 03:30 | 39.86216 | -104.64135 | 5347 ft | 67 kts | 180° |
| 2026-04-22 03:30 | 39.85519 | -104.64141 | 5353 ft | 132 kts | 180° |
| 2026-04-22 03:30 | 39.84440 | -104.64154 | 5618 ft | 170 kts | 180° |
| 2026-04-22 03:31 | 39.83243 | -104.64148 | 6517 ft | 174 kts | 179° |
| 2026-04-22 03:31 | 39.82070 | -104.64393 | 7542 ft | 176 kts | 201° |
| 2026-04-22 03:31 | 39.81059 | -104.65401 | 8230 ft | 197 kts | 227° |
| 2026-04-22 03:31 | 39.80319 | -104.67014 | 8791 ft | 217 kts | 242° |
| 2026-04-22 03:32 | 39.79901 | -104.69011 | 9398 ft | 244 kts | 258° |
| 2026-04-22 03:32 | 39.80019 | -104.71372 | 9974 ft | 277 kts | 277° |
| 2026-04-22 03:32 | 39.80459 | -104.73915 | 10735 ft | 293 kts | 280° |
| 2026-04-22 03:32 | 39.80980 | -104.76551 | 11608 ft | 304 kts | 281° |
| 2026-04-22 03:33 | 39.81527 | -104.79244 | 12559 ft | 315 kts | 282° |
| 2026-04-22 03:33 | 39.82108 | -104.81994 | 13542 ft | 323 kts | 283° |
| 2026-04-22 03:33 | 39.82752 | -104.84835 | 14435 ft | 332 kts | 285° |
| 2026-04-22 03:33 | 39.83463 | -104.87715 | 15453 ft | 337 kts | 286° |
| 2026-04-22 03:34 | 39.84011 | -104.90683 | 16415 ft | 338 kts | 272° |
| 2026-04-22 03:34 | 39.83798 | -104.93716 | 17305 ft | 340 kts | 255° |
| 2026-04-22 03:34 | 39.83191 | -104.96673 | 18230 ft | 343 kts | 253° |
| 2026-04-22 03:34 | 39.82521 | -104.99675 | 18919 ft | 348 kts | 252° |
| 2026-04-22 03:35 | 39.81812 | -105.02714 | 19778 ft | 353 kts | 252° |
| 2026-04-22 03:35 | 39.81183 | -105.05775 | 20594 ft | 356 kts | 254° |
| 2026-04-22 03:35 | 39.80573 | -105.08917 | 21413 ft | 360 kts | 254° |
| 2026-04-22 03:35 | 39.79950 | -105.12088 | 22154 ft | 364 kts | 254° |
| 2026-04-22 03:36 | 39.79313 | -105.15290 | 22880 ft | 367 kts | 254° |
| 2026-04-22 03:36 | 39.78665 | -105.18524 | 23557 ft | 371 kts | 254° |
| 2026-04-22 03:36 | 39.78008 | -105.21786 | 24028 ft | 375 kts | 254° |
| 2026-04-22 03:36 | 39.77327 | -105.25154 | 24036 ft | 395 kts | 254° |
| 2026-04-22 03:37 | 39.76619 | -105.28646 | 24017 ft | 396 kts | 254° |
| 2026-04-22 03:37 | 39.75925 | -105.32075 | 23939 ft | 391 kts | 254° |
| 2026-04-22 03:37 | 39.75219 | -105.35534 | 23939 ft | 402 kts | 253° |
| 2026-04-22 03:37 | 39.74492 | -105.39081 | 23964 ft | 408 kts | 254° |
| 2026-04-22 03:38 | 39.73757 | -105.42666 | 23908 ft | 411 kts | 253° |
| 2026-04-22 03:38 | 39.73024 | -105.46246 | 23888 ft | 411 kts | 253° |
| 2026-04-22 03:38 | 39.72287 | -105.49833 | 23885 ft | 412 kts | 253° |
| 2026-04-22 03:38 | 39.71548 | -105.53429 | 23917 ft | 412 kts | 253° |
| 2026-04-22 03:39 | 39.70807 | -105.57023 | 23918 ft | 412 kts | 253° |
| 2026-04-22 03:39 | 39.70070 | -105.60618 | 23922 ft | 411 kts | 254° |
| 2026-04-22 03:39 | 39.69338 | -105.64217 | 23924 ft | 412 kts | 254° |
| 2026-04-22 03:39 | 39.68610 | -105.67779 | 23953 ft | 414 kts | 253° |
| 2026-04-22 03:40 | 39.67919 | -105.71414 | 23944 ft | 414 kts | 255° |
| 2026-04-22 03:40 | 39.67250 | -105.75054 | 23950 ft | 414 kts | 254° |
| 2026-04-22 03:40 | 39.66575 | -105.78689 | 23976 ft | 414 kts | 254° |
| 2026-04-22 03:40 | 39.65897 | -105.82319 | 23968 ft | 414 kts | 254° |
| 2026-04-22 03:41 | 39.65212 | -105.85951 | 23963 ft | 414 kts | 254° |
| 2026-04-22 03:41 | 39.64525 | -105.89586 | 23963 ft | 414 kts | 254° |
| 2026-04-22 03:41 | 39.63837 | -105.93218 | 23982 ft | 414 kts | 254° |
| 2026-04-22 03:41 | 39.63148 | -105.96846 | 23984 ft | 414 kts | 254° |
| 2026-04-22 03:42 | 39.62457 | -106.00476 | 23979 ft | 415 kts | 253° |
| 2026-04-22 03:42 | 39.61761 | -106.04122 | 23968 ft | 416 kts | 253° |
| 2026-04-22 03:42 | 39.61066 | -106.07758 | 23988 ft | 416 kts | 254° |
| 2026-04-22 03:42 | 39.60370 | -106.11400 | 23987 ft | 416 kts | 253° |
| 2026-04-22 03:43 | 39.59674 | -106.15035 | 23993 ft | 416 kts | 253° |
| 2026-04-22 03:43 | 39.58975 | -106.18673 | 23627 ft | 415 kts | 253° |
| 2026-04-22 03:43 | 39.58276 | -106.22308 | 22676 ft | 413 kts | 253° |
| 2026-04-22 03:43 | 39.57603 | -106.25808 | 22161 ft | 399 kts | 253° |
| 2026-04-22 03:44 | 39.56940 | -106.29249 | 21608 ft | 387 kts | 253° |
| 2026-04-22 03:44 | 39.56295 | -106.32587 | 21113 ft | 377 kts | 253° |
| 2026-04-22 03:44 | 39.55664 | -106.35849 | 20614 ft | 368 kts | 253° |
| 2026-04-22 03:44 | 39.55049 | -106.39027 | 20134 ft | 359 kts | 253° |
| 2026-04-22 03:45 | 39.54452 | -106.42145 | 19667 ft | 355 kts | 255° |
| 2026-04-22 03:45 | 39.54245 | -106.45360 | 19242 ft | 361 kts | 266° |
| 2026-04-22 03:45 | 39.54297 | -106.48660 | 18543 ft | 367 kts | 269° |
| 2026-04-22 03:45 | 39.54402 | -106.51937 | 18027 ft | 363 kts | 269° |
| 2026-04-22 03:46 | 39.54499 | -106.55178 | 17565 ft | 357 kts | 269° |
| 2026-04-22 03:46 | 39.54586 | -106.58385 | 17091 ft | 355 kts | 269° |
| 2026-04-22 03:46 | 39.54666 | -106.61571 | 16632 ft | 353 kts | 269° |
| 2026-04-22 03:46 | 39.54745 | -106.64738 | 16141 ft | 351 kts | 268° |
| 2026-04-22 03:47 | 39.54771 | -106.67862 | 15952 ft | 343 kts | 263° |
| 2026-04-22 03:47 | 39.54471 | -106.70925 | 15782 ft | 341 kts | 259° |
| 2026-04-22 03:47 | 39.54098 | -106.73924 | 15779 ft | 333 kts | 258° |
| 2026-04-22 03:47 | 39.53726 | -106.76888 | 15795 ft | 336 kts | 258° |
| 2026-04-22 03:48 | 39.53346 | -106.79866 | 15800 ft | 335 kts | 258° |
| 2026-04-22 03:48 | 39.52970 | -106.82838 | 15792 ft | 338 kts | 258° |
| 2026-04-22 03:48 | 39.52600 | -106.85843 | 15818 ft | 338 kts | 259° |
| 2026-04-22 03:48 | 39.52237 | -106.88841 | 15859 ft | 339 kts | 258° |
| 2026-04-22 03:49 | 39.51861 | -106.91848 | 15599 ft | 334 kts | 255° |
| 2026-04-22 03:49 | 39.51000 | -106.94601 | 15362 ft | 328 kts | 236° |
| 2026-04-22 03:49 | 39.49441 | -106.96728 | 14911 ft | 323 kts | 215° |
| 2026-04-22 03:49 | 39.47414 | -106.97843 | 14540 ft | 316 kts | 192° |
| 2026-04-22 03:50 | 39.45229 | -106.97838 | 14091 ft | 314 kts | 172° |
| 2026-04-22 03:50 | 39.43189 | -106.96932 | 13640 ft | 305 kts | 158° |
| 2026-04-22 03:50 | 39.41301 | -106.95905 | 13240 ft | 291 kts | 163° |
| 2026-04-22 03:50 | 39.39462 | -106.95139 | 13543 ft | 261 kts | 164° |
| 2026-04-22 03:51 | 39.37790 | -106.94343 | 13666 ft | 250 kts | 162° |
| 2026-04-22 03:51 | 39.36199 | -106.93524 | 13256 ft | 254 kts | 163° |
| 2026-04-22 03:51 | 39.34525 | -106.92735 | 13033 ft | 247 kts | 163° |
| 2026-04-22 03:51 | 39.32878 | -106.91930 | 13031 ft | 255 kts | 162° |
| 2026-04-22 03:52 | 39.31284 | -106.91141 | 12529 ft | 234 kts | 161° |
| 2026-04-22 03:52 | 39.29811 | -106.90395 | 11776 ft | 221 kts | 161° |
| 2026-04-22 03:52 | 39.28470 | -106.89695 | 11223 ft | 193 kts | 159° |
| 2026-04-22 03:52 | 39.27232 | -106.89110 | 10284 ft | 188 kts | 163° |
| 2026-04-22 03:53 | 39.25968 | -106.88615 | 9282 ft | 192 kts | 161° |
| 2026-04-22 03:53 | 39.24724 | -106.88029 | 8306 ft | 192 kts | 159° |
| 2026-04-22 03:53 | 39.23507 | -106.87451 | 7769 ft | 176 kts | 154° |
| 2026-04-22 03:53 | 39.22481 | -106.86963 | 7742 ft | 137 kts | 155° |
| 2026-04-22 03:54 | 39.21751 | -106.86615 | 7801 ft | 73 kts | 161° |
| 2026-04-22 03:54 | 39.21489 | -106.86476 | 7822 ft | 11 kts | 115° |
| 2026-04-22 03:54 | 39.21504 | -106.86387 | 7820 ft | 11 kts | 24° |
| 2026-04-22 03:54 | 39.21591 | -106.86419 | 7815 ft | 15 kts | 339° |
| 2026-04-22 03:55 | 39.21708 | -106.86475 | 7805 ft | 21 kts | 340° |
| 2026-04-22 03:55 | 39.21849 | -106.86539 | 7785 ft | 13 kts | 346° |
| 2026-04-22 03:55 | 39.21892 | -106.86496 | 7787 ft | 8 kts | 71° |
| 2026-04-22 03:55 | 39.21902 | -106.86459 | 7786 ft | 2 kts | 73° |
| 2026-04-22 03:56 | 39.21903 | -106.86453 | 7786 ft | 0 kts | 73° |
| 2026-04-22 03:59 | 39.22784 | -106.87109 | 7726 ft | 150 kts | 155° |
| 2026-04-22 04:00 | 39.21941 | -106.86704 | 7783 ft | 106 kts | 159° |